Time;durP1;ratioP1;P1;durP2;ratioP2;P2;SDS_P1;SDS_P2;PMS_P1;PMS_P2;Temp;Humidity;BMP_temperature;BMP_pressure;BME280_temperature;BME280_humidity;BME280_pressure;Samples;Min_cycle;Max_cycle;Signal;HPM_P1;HPM_P2
2021/11/17 02:28:21;;;;;;;7.28;3.10;;;23.50;94.60;;;;;;5073379;28;20025;-74
2021/11/17 02:31:27;;;;;;;5.57;3.40;;;23.90;93.10;;;;;;5073371;28;20033;-75
2021/11/17 02:33:57;;;;;;;4.95;3.53;;;23.90;93.60;;;;;;5050345;28;20396;-75
2021/11/17 02:36:46;;;;;;;6.53;3.10;;;24.20;93.80;;;;;;5072727;28;20033;-75
2021/11/17 02:39:32;;;;;;;5.47;3.20;;;24.00;92.80;;;;;;5074200;28;20111;-75
2021/11/17 02:42:21;;;;;;;6.20;3.33;;;24.00;92.50;;;;;;5075431;28;20396;-74
2021/11/17 02:44:48;;;;;;;7.70;3.20;;;24.20;93.30;;;;;;5059516;28;20048;-74
2021/11/17 02:47:37;;;;;;;5.78;3.55;;;23.80;92.80;;;;;;5076649;28;20104;-75
2021/11/17 02:50:19;;;;;;;7.57;3.63;;;23.90;93.10;;;;;;5075347;28;20021;-75
2021/11/17 02:52:56;;;;;;;5.05;3.20;;;23.70;94.10;;;;;;5076778;28;20537;-74
2021/11/17 02:55:43;;;;;;;5.45;3.42;;;23.60;93.60;;;;;;5075561;28;20499;-74
2021/11/17 02:58:51;;;;;;;6.68;3.45;;;24.20;92.60;;;;;;5076377;28;20028;-74
2021/11/17 03:01:55;;;;;;;5.47;3.03;;;24.40;92.90;;;;;;5075505;28;20035;-74
2021/11/17 03:04:41;;;;;;;4.10;3.05;;;23.90;92.40;;;;;;5074846;28;20077;-75
2021/11/17 03:07:29;;;;;;;8.50;3.20;;;23.90;93.30;;;;;;5075210;28;20087;-73
2021/11/17 03:10:18;;;;;;;5.28;2.85;;;23.80;93.00;;;;;;5058589;28;20088;-74
2021/11/17 03:13:10;;;;;;;8.20;3.25;;;23.90;92.30;;;;;;5076355;28;20048;-74
2021/11/17 03:15:55;;;;;;;7.28;2.90;;;23.70;92.70;;;;;;5074598;28;20071;-75
2021/11/17 03:18:40;;;;;;;6.85;2.80;;;24.20;92.40;;;;;;5074405;28;20049;-74
2021/11/17 03:21:36;;;;;;;6.15;2.95;;;24.20;91.70;;;;;;5074679;28;20107;-74
2021/11/17 03:24:16;;;;;;;6.53;3.00;;;24.30;92.00;;;;;;5058232;28;20044;-74
2021/11/17 03:27:17;;;;;;;5.60;3.30;;;24.50;92.10;;;;;;5074626;28;20021;-74
2021/11/17 03:30:02;;;;;;;5.75;3.22;;;24.80;92.30;;;;;;5074623;28;20397;-74
2021/11/17 03:32:55;;;;;;;6.57;3.42;;;24.40;92.10;;;;;;5075156;28;20078;-75
2021/11/17 03:36:00;;;;;;;5.60;3.38;;;24.50;91.90;;;;;;5073639;28;20021;-75
2021/11/17 03:38:51;;;;;;;8.40;2.83;;;24.60;92.10;;;;;;5073671;28;20035;-75
2021/11/17 03:41:32;;;;;;;4.40;2.53;;;24.20;91.90;;;;;;5074791;28;20024;-74
2021/11/17 03:44:14;;;;;;;4.70;3.50;;;24.30;92.50;;;;;;5057015;28;20059;-75
2021/11/17 03:46:57;;;;;;;4.90;3.15;;;24.20;92.50;;;;;;5056733;28;20055;-73
2021/11/17 03:49:45;;;;;;;5.10;2.90;;;24.80;92.20;;;;;;5073021;28;20025;-75
2021/11/17 03:52:22;;;;;;;4.05;2.30;;;24.20;92.60;;;;;;5073209;28;20028;-73
2021/11/17 03:55:03;;;;;;;5.63;2.60;;;24.50;91.90;;;;;;5056524;28;20028;-74
2021/11/17 03:57:42;;;;;;;5.28;2.80;;;24.40;91.90;;;;;;5074407;28;20484;-74
2021/11/17 04:00:34;;;;;;;5.45;2.65;;;24.40;92.50;;;;;;5074409;28;20028;-71
2021/11/17 04:03:38;;;;;;;4.35;2.40;;;24.20;92.20;;;;;;5072969;28;20024;-72
2021/11/17 04:06:30;;;;;;;4.70;2.38;;;24.50;92.30;;;;;;5074276;28;20017;-72
2021/11/17 04:09:10;;;;;;;5.00;2.63;;;24.10;93.00;;;;;;5074248;28;20085;-73
2021/11/17 04:12:01;;;;;;;6.88;2.72;;;24.20;92.70;;;;;;5073094;28;20070;-72
2021/11/17 04:14:45;;;;;;;;;;;23.70;92.90;;;;;;5074245;28;20055;-73
2021/11/17 04:17:24;;;;;;;5.68;2.50;;;23.90;93.00;;;;;;5073864;28;19993;-74
2021/11/17 04:19:59;;;;;;;5.18;2.40;;;24.20;92.40;;;;;;5072933;28;20037;-74
2021/11/17 04:22:41;;;;;;;5.93;2.88;;;24.00;92.80;;;;;;5072789;28;20497;-73
2021/11/17 04:25:24;;;;;;;5.97;3.08;;;24.30;92.70;;;;;;5055857;28;20025;-73
2021/11/17 04:28:13;;;;;;;5.03;3.05;;;24.20;91.90;;;;;;5073856;28;20020;-74
2021/11/17 04:30:53;;;;;;;4.75;2.97;;;24.30;92.10;;;;;;5072431;28;20036;-74
2021/11/17 04:34:03;;;;;;;5.35;2.90;;;24.10;92.70;;;;;;5072684;28;20052;-74
2021/11/17 04:36:40;;;;;;;7.60;3.00;;;24.20;92.40;;;;;;5061212;28;20132;-73
2021/11/17 04:39:26;;;;;;;3.25;2.70;;;24.00;92.40;;;;;;5072270;28;20095;-73
2021/11/17 04:41:56;;;;;;;5.45;2.60;;;23.90;93.00;;;;;;5073361;28;20070;-73
2021/11/17 04:44:46;;;;;;;3.65;2.28;;;24.20;93.00;;;;;;5073614;28;20016;-72
2021/11/17 04:47:26;;;;;;;9.00;2.88;;;24.10;92.30;;;;;;5057742;28;20545;-73
2021/11/17 04:49:59;;;;;;;3.92;2.42;;;24.20;91.90;;;;;;5071987;28;20413;-74
2021/11/17 04:52:29;;;;;;;5.60;2.67;;;24.10;93.00;;;;;;5071971;28;20024;-74
2021/11/17 04:55:43;;;;;;;4.55;2.72;;;24.00;92.70;;;;;;5073350;28;20021;-73
2021/11/17 04:58:42;;;;;;;2.90;2.60;;;24.30;92.50;;;;;;5054937;28;20059;-74
2021/11/17 05:01:40;;;;;;;5.07;3.10;;;24.20;93.00;;;;;;5071622;28;20025;-73
2021/11/17 05:04:07;;;;;;;4.63;2.95;;;24.30;92.90;;;;;;5073163;28;20531;-73
2021/11/17 05:07:05;;;;;;;4.32;2.58;;;24.20;93.10;;;;;;5071841;28;20024;-73
2021/11/17 05:09:35;;;;;;;4.63;2.78;;;24.30;92.70;;;;;;5071825;28;20032;-73
2021/11/17 05:12:38;;;;;;;5.72;2.72;;;24.30;92.80;;;;;;5073110;28;20020;-73
2021/11/17 05:15:15;;;;;;;3.50;2.70;;;24.70;92.50;;;;;;5073074;28;20048;-74
2021/11/17 05:18:18;;;;;;;3.42;2.33;;;24.80;92.50;;;;;;5072775;28;20036;-74
2021/11/17 05:21:10;;;;;;;3.88;2.35;;;24.70;93.10;;;;;;5072837;28;20101;-74
2021/11/17 05:23:52;;;;;;;5.03;2.50;;;24.70;93.40;;;;;;5071492;28;20055;-73
2021/11/17 05:26:32;;;;;;;6.63;3.00;;;24.30;93.20;;;;;;5071742;28;20024;-73
2021/11/17 05:29:14;;;;;;;3.67;2.50;;;23.50;94.10;;;;;;5071534;28;20025;-74
2021/11/17 05:32:00;;;;;;;5.47;2.63;;;23.40;94.50;;;;;;5072833;28;20408;-74
2021/11/17 05:34:40;;;;;;;5.07;2.95;;;23.50;94.20;;;;;;5071323;28;20020;-74
2021/11/17 05:37:15;;;;;;;4.00;2.70;;;23.60;94.60;;;;;;5072736;28;20016;-74
2021/11/17 05:40:05;;;;;;;4.97;2.72;;;23.20;94.90;;;;;;5054685;28;20028;-74
2021/11/17 05:42:35;;;;;;;4.68;2.83;;;23.50;94.80;;;;;;5054728;28;20028;-73
2021/11/17 05:45:39;;;;;;;5.22;2.75;;;23.80;94.10;;;;;;5072728;28;20024;-73
2021/11/17 05:48:30;;;;;;;4.57;2.60;;;23.90;94.10;;;;;;5072627;28;20534;-72
2021/11/17 05:51:34;;;;;;;3.63;2.65;;;23.90;93.70;;;;;;5072635;28;20025;-73
2021/11/17 05:54:27;;;;;;;3.83;2.47;;;24.00;93.70;;;;;;5072612;28;20059;-74
2021/11/17 05:57:07;;;;;;;4.82;3.10;;;23.60;93.60;;;;;;5040098;28;20024;-74
2021/11/17 06:00:00;;;;;;;5.75;2.60;;;23.70;93.80;;;;;;5071331;28;20021;-75
2021/11/17 06:03:02;;;;;;;5.32;2.47;;;23.80;93.40;;;;;;5071686;28;20024;-75
2021/11/17 06:05:29;;;;;;;5.40;2.78;;;23.00;94.00;;;;;;5071540;28;20019;-75
2021/11/17 06:07:56;;;;;;;3.45;2.58;;;22.80;94.70;;;;;;5072277;28;20380;-76
2021/11/17 06:10:36;;;;;;;4.97;2.50;;;22.10;95.50;;;;;;5072338;28;20091;-76
2021/11/17 06:13:05;;;;;;;3.53;2.50;;;22.20;96.40;;;;;;5074262;28;20025;-77
2021/11/17 06:15:34;;;;;;;5.03;2.90;;;23.00;95.40;;;;;;5076221;28;20094;-77
2021/11/17 06:18:04;;;;;;;5.22;2.72;;;23.60;94.10;;;;;;5074427;28;20054;-77
2021/11/17 06:20:32;;;;;;;4.20;2.50;;;23.70;94.00;;;;;;5076007;28;20481;-78
2021/11/17 06:23:07;;;;;;;4.35;2.53;;;23.50;94.00;;;;;;5074728;28;20526;-77
2021/11/17 06:25:38;;;;;;;4.75;2.70;;;23.50;94.00;;;;;;5074823;28;20027;-77
2021/11/17 06:28:06;;;;;;;4.35;2.30;;;23.40;94.80;;;;;;5076061;28;20021;-77
2021/11/17 06:30:38;;;;;;;3.65;2.40;;;24.00;93.90;;;;;;5076018;28;20028;-76
2021/11/17 06:33:07;;;;;;;3.85;2.33;;;23.80;93.40;;;;;;5074677;28;20123;-77
2021/11/17 06:35:36;;;;;;;5.30;2.65;;;23.70;93.50;;;;;;5074604;28;20020;-77
2021/11/17 06:38:04;;;;;;;3.17;2.33;;;23.90;93.40;;;;;;5074535;28;20025;-76
2021/11/17 06:40:33;;;;;;;4.25;2.70;;;24.30;92.80;;;;;;5075774;28;20486;-76
2021/11/17 06:43:01;;;;;;;4.28;2.90;;;24.00;92.60;;;;;;5074544;28;20105;-77
2021/11/17 06:45:36;;;;;;;6.60;3.65;;;24.00;92.60;;;;;;5074469;28;20539;-74
2021/11/17 06:48:06;;;;;;;4.05;2.42;;;24.10;93.40;;;;;;5075644;28;20045;-74
2021/11/17 06:50:36;;;;;;;4.05;2.67;;;23.70;93.10;;;;;;5074272;28;20020;-75
2021/11/17 06:53:05;;;;;;;4.80;2.67;;;23.60;93.60;;;;;;5075663;28;20025;-75
2021/11/17 06:55:32;;;;;;;4.60;2.88;;;23.70;93.60;;;;;;5074206;28;20081;-74
2021/11/17 06:58:00;;;;;;;3.45;2.83;;;24.00;92.80;;;;;;5075496;28;20458;-74
2021/11/17 07:00:30;;;;;;;4.55;2.40;;;24.20;92.60;;;;;;5075389;28;20428;-73
2021/11/17 07:02:58;;;;;;;6.10;2.80;;;23.70;93.00;;;;;;5075311;28;20020;-74
2021/11/17 07:05:25;;;;;;;3.22;2.70;;;23.30;93.70;;;;;;5075395;28;20130;-74
2021/11/17 07:07:55;;;;;;;3.30;2.95;;;23.00;94.10;;;;;;5073981;28;20020;-75
2021/11/17 07:10:26;;;;;;;4.97;2.78;;;21.90;94.50;;;;;;5073957;28;20062;-74
2021/11/17 07:12:54;;;;;;;4.35;2.60;;;21.90;95.90;;;;;;5073963;28;20021;-74
2021/11/17 07:15:24;;;;;;;4.93;2.55;;;21.20;96.50;;;;;;5073818;28;20484;-73
2021/11/17 07:17:52;;;;;;;5.97;2.30;;;21.10;97.10;;;;;;5074977;28;20045;-73
2021/11/17 07:20:20;;;;;;;7.57;2.42;;;21.10;97.40;;;;;;5074998;28;20021;-72
2021/11/17 07:22:49;;;;;;;5.68;3.05;;;21.10;97.20;;;;;;5073739;28;20075;-74
2021/11/17 07:25:20;;;;;;;4.93;2.60;;;20.80;97.50;;;;;;5073150;28;20033;-73
2021/11/17 07:27:48;;;;;;;5.10;3.05;;;20.80;97.80;;;;;;5075037;28;20013;-74
2021/11/17 07:30:21;;;;;;;5.25;2.80;;;20.70;98.10;;;;;;5074867;28;20094;-75
2021/11/17 07:32:49;;;;;;;5.05;2.90;;;20.60;98.40;;;;;;5074804;28;20024;-72
2021/11/17 07:35:18;;;;;;;6.68;2.47;;;20.40;98.50;;;;;;5073300;28;20028;-72
2021/11/17 07:37:45;;;;;;;4.97;2.85;;;20.40;99.00;;;;;;5074706;28;20096;-74
2021/11/17 07:40:14;;;;;;;6.60;2.90;;;20.30;99.10;;;;;;5074611;28;20046;-74
2021/11/17 07:42:42;;;;;;;4.28;2.72;;;20.00;99.30;;;;;;5073331;28;20115;-74
2021/11/17 07:45:12;;;;;;;3.00;2.70;;;19.80;99.70;;;;;;5073246;28;20017;-75
2021/11/17 07:47:40;;;;;;;6.47;2.75;;;19.80;99.90;;;;;;5074548;28;20023;-74
2021/11/17 07:50:09;;;;;;;5.05;2.67;;;19.60;99.90;;;;;;5073154;28;20025;-75
2021/11/17 07:52:37;;;;;;;7.13;3.13;;;19.50;99.90;;;;;;5072981;28;20057;-74
2021/11/17 07:55:07;;;;;;;5.07;2.70;;;19.40;99.90;;;;;;5074235;28;20065;-74
2021/11/17 07:57:34;;;;;;;5.30;3.00;;;19.40;99.90;;;;;;5074470;28;20028;-76
2021/11/17 08:00:04;;;;;;;5.95;2.95;;;19.40;99.90;;;;;;5074225;28;20058;-77
2021/11/17 08:02:31;;;;;;;5.25;2.97;;;19.30;99.90;;;;;;5072980;28;20021;-76
2021/11/17 08:04:59;;;;;;;6.80;3.47;;;19.00;99.90;;;;;;5072860;28;20397;-77
2021/11/17 08:07:26;;;;;;;4.00;2.72;;;19.00;99.90;;;;;;5074222;28;20035;-76
2021/11/17 08:09:54;;;;;;;7.40;3.25;;;19.00;99.90;;;;;;5072834;28;20158;-77
2021/11/17 08:12:21;;;;;;;5.55;3.00;;;18.90;99.90;;;;;;5074159;28;20020;-76
2021/11/17 08:14:48;;;;;;;3.55;3.00;;;18.80;99.90;;;;;;5072448;28;20030;-75
2021/11/17 08:17:16;;;;;;;4.22;3.25;;;18.70;99.90;;;;;;5072211;28;20036;-77
2021/11/17 08:19:43;;;;;;;5.90;3.10;;;18.70;99.90;;;;;;5072234;28;20028;-76
2021/11/17 08:22:11;;;;;;;4.40;3.25;;;18.70;99.90;;;;;;5072341;28;20031;-76
2021/11/17 08:24:39;;;;;;;5.15;3.15;;;18.60;99.90;;;;;;5072176;28;20021;-75
2021/11/17 08:27:09;;;;;;;6.68;3.33;;;18.60;99.90;;;;;;5072194;28;20048;-76
2021/11/17 08:29:37;;;;;;;10.75;4.00;;;18.50;99.90;;;;;;5072172;28;20055;-77
2021/11/17 08:32:05;;;;;;;6.00;3.20;;;18.50;99.90;;;;;;5073448;28;20036;-76
2021/11/17 08:34:33;;;;;;;4.28;3.13;;;18.50;99.90;;;;;;5071943;28;20021;-77
2021/11/17 08:37:00;;;;;;;5.75;3.40;;;18.50;99.90;;;;;;5072526;28;20112;-75
2021/11/17 08:39:28;;;;;;;5.82;3.70;;;18.40;99.90;;;;;;5072527;28;20074;-76
2021/11/17 08:41:56;;;;;;;6.15;3.50;;;18.40;99.90;;;;;;5072703;28;20089;-74
2021/11/17 08:44:23;;;;;;;6.38;3.40;;;18.30;99.90;;;;;;5071849;28;20547;-75
2021/11/17 08:46:50;;;;;;;4.50;3.20;;;18.20;99.90;;;;;;5071801;28;20093;-74
2021/11/17 08:49:18;;;;;;;7.63;3.50;;;18.20;99.90;;;;;;5072177;28;20053;-76
2021/11/17 08:51:48;;;;;;;5.85;3.50;;;18.20;99.90;;;;;;5073318;28;20492;-77
2021/11/17 08:54:16;;;;;;;5.60;3.30;;;18.10;99.90;;;;;;5072036;28;20093;-76
2021/11/17 08:56:43;;;;;;;6.85;3.80;;;18.00;99.90;;;;;;5073238;28;20025;-75
2021/11/17 08:59:11;;;;;;;5.13;3.88;;;18.00;99.90;;;;;;5071816;28;20370;-77
2021/11/17 09:01:38;;;;;;;5.28;3.80;;;18.00;99.90;;;;;;5055418;28;20021;-75
2021/11/17 09:04:06;;;;;;;5.30;4.00;;;18.00;99.90;;;;;;5071783;28;20169;-78
2021/11/17 09:06:38;;;;;;;5.50;4.45;;;18.00;99.90;;;;;;5071751;28;20028;-76
2021/11/17 09:09:07;;;;;;;7.78;3.80;;;18.00;99.90;;;;;;5073077;28;20017;-77
2021/11/17 09:11:40;;;;;;;4.45;3.30;;;17.90;99.90;;;;;;5071773;28;20056;-78
2021/11/17 09:14:08;;;;;;;8.13;4.20;;;17.90;99.90;;;;;;5073480;28;20012;-77
2021/11/17 09:16:39;;;;;;;4.22;3.58;;;17.80;99.90;;;;;;5073048;28;20024;-75
2021/11/17 09:19:09;;;;;;;7.18;3.65;;;17.80;99.90;;;;;;5071477;28;20044;-75
2021/11/17 09:21:41;;;;;;;6.50;4.03;;;17.80;99.90;;;;;;5071731;28;20082;-74
2021/11/17 09:24:10;;;;;;;6.38;3.42;;;17.80;99.90;;;;;;5073027;28;20473;-75
2021/11/17 09:26:39;;;;;;;4.40;4.00;;;17.80;99.90;;;;;;5071518;28;20024;-76
2021/11/17 09:29:07;;;;;;;5.45;4.10;;;17.70;99.90;;;;;;5071559;28;20021;-75
2021/11/17 09:31:36;;;;;;;6.28;3.95;;;17.70;99.90;;;;;;5055044;28;20505;-75
2021/11/17 09:34:04;;;;;;;8.52;4.18;;;17.70;99.90;;;;;;5070770;28;20472;-74
2021/11/17 09:36:33;;;;;;;6.43;4.25;;;17.70;99.90;;;;;;5071300;28;20377;-74
2021/11/17 09:39:03;;;;;;;9.05;4.32;;;17.70;99.90;;;;;;5072625;28;20056;-74
2021/11/17 09:41:49;;;;;;;4.65;4.18;;;17.70;99.90;;;;;;5072877;28;20027;-75
2021/11/17 09:44:24;;;;;;;6.18;3.92;;;17.70;99.90;;;;;;5072842;28;20021;-75
2021/11/17 09:46:54;;;;;;;6.35;4.40;;;17.70;99.90;;;;;;5071451;28;20041;-76
2021/11/17 09:49:41;;;;;;;5.28;4.13;;;17.60;99.90;;;;;;5076856;28;20070;-74
2021/11/17 09:52:13;;;;;;;5.90;4.40;;;17.60;99.90;;;;;;5076966;28;20397;-75
2021/11/17 09:54:56;;;;;;;7.97;4.55;;;17.50;99.90;;;;;;5075488;28;20020;-74
2021/11/17 09:57:28;;;;;;;4.97;4.30;;;17.60;99.90;;;;;;5076812;28;20024;-74
2021/11/17 10:00:17;;;;;;;6.70;4.60;;;17.60;99.90;;;;;;5075444;28;20492;-72
2021/11/17 10:03:10;;;;;;;7.97;4.00;;;17.60;99.90;;;;;;5076679;28;20027;-72
2021/11/17 10:11:52;;;;;;;7.10;4.90;;;17.60;99.90;;;;;;5075464;28;20064;-74
2021/11/17 10:14:43;;;;;;;7.50;4.72;;;17.50;99.90;;;;;;5076517;28;20021;-74
2021/11/17 10:17:43;;;;;;;9.85;4.53;;;17.50;99.90;;;;;;5075018;28;20063;-73
2021/11/17 10:20:39;;;;;;;9.13;4.40;;;17.50;99.90;;;;;;5062386;28;20044;-74
2021/11/17 10:23:43;;;;;;;7.78;5.22;;;17.50;99.90;;;;;;5076046;28;20029;-73
2021/11/17 10:26:14;;;;;;;7.68;4.78;;;17.50;99.90;;;;;;5062156;28;20140;-72
2021/11/17 10:28:41;;;;;;;5.95;4.65;;;17.40;99.90;;;;;;5076122;28;20048;-73
2021/11/17 10:31:26;;;;;;;5.10;4.65;;;17.40;99.90;;;;;;5076071;28;20334;-74
2021/11/17 10:34:15;;;;;;;5.60;4.55;;;17.40;99.90;;;;;;5074667;28;20031;-72
2021/11/17 10:36:48;;;;;;;5.95;4.40;;;17.40;99.90;;;;;;5074627;28;20366;-74
2021/11/17 10:39:18;;;;;;;6.60;4.65;;;17.40;99.90;;;;;;5075779;28;20443;-73
2021/11/17 10:42:06;;;;;;;8.32;4.53;;;17.40;99.90;;;;;;5074506;28;20031;-73
2021/11/17 10:44:50;;;;;;;7.35;4.88;;;17.40;99.90;;;;;;5075718;28;20020;-71
2021/11/17 10:47:29;;;;;;;6.35;4.53;;;17.50;99.90;;;;;;5075814;28;20025;-73
2021/11/17 10:50:05;;;;;;;7.15;5.15;;;17.50;99.90;;;;;;5074543;28;20048;-73
2021/11/17 10:52:47;;;;;;;5.60;4.60;;;17.40;99.90;;;;;;5075607;28;20032;-74
2021/11/17 10:55:20;;;;;;;5.18;4.75;;;17.40;99.90;;;;;;5074293;28;20054;-75
2021/11/17 10:57:49;;;;;;;6.05;4.82;;;17.40;99.90;;;;;;5075515;28;20035;-75
2021/11/17 11:00:20;;;;;;;6.30;4.90;;;17.40;99.90;;;;;;5073137;28;20082;-74
2021/11/17 11:02:53;;;;;;;6.10;4.68;;;17.10;99.90;;;;;;5075376;28;20024;-73
2021/11/17 11:05:25;;;;;;;6.00;4.43;;;17.30;99.90;;;;;;5074172;28;20024;-72
2021/11/17 11:07:53;;;;;;;5.32;4.53;;;17.30;99.90;;;;;;5075439;28;20078;-73
2021/11/17 11:10:28;;;;;;;5.13;4.68;;;17.30;99.90;;;;;;5073977;28;20052;-73
2021/11/17 11:12:57;;;;;;;5.88;4.90;;;17.30;99.90;;;;;;5075402;28;20025;-74
2021/11/17 11:15:35;;;;;;;6.80;4.90;;;17.30;99.90;;;;;;5073979;28;20028;-74
2021/11/17 11:18:12;;;;;;;8.48;5.40;;;17.30;99.90;;;;;;5073800;28;20052;-73
2021/11/17 11:20:48;;;;;;;6.63;4.65;;;17.30;99.90;;;;;;5073922;28;20432;-76
2021/11/17 11:23:33;;;;;;;6.90;4.45;;;17.30;99.90;;;;;;5073901;28;20128;-75
2021/11/17 11:26:09;;;;;;;5.55;4.60;;;17.30;99.90;;;;;;5073975;28;20033;-76
2021/11/17 11:28:39;;;;;;;6.68;4.95;;;17.30;99.90;;;;;;5074985;28;20016;-74
2021/11/17 11:31:07;;;;;;;5.93;5.15;;;17.30;99.90;;;;;;5073664;28;20484;-75
2021/11/17 11:33:43;;;;;;;5.65;5.05;;;17.30;99.90;;;;;;5075030;28;20024;-74
2021/11/17 11:36:13;;;;;;;5.28;4.78;;;17.30;99.90;;;;;;5074954;28;20020;-74
2021/11/17 11:39:14;;;;;;;5.78;5.03;;;17.20;99.90;;;;;;5073570;28;20042;-76
2021/11/17 11:42:07;;;;;;;7.28;5.00;;;17.30;99.90;;;;;;5073491;28;20032;-76
2021/11/17 11:44:47;;;;;;;7.00;5.53;;;17.30;99.90;;;;;;5071875;28;20089;-75
2021/11/17 11:47:14;;;;;;;7.03;4.90;;;17.30;99.90;;;;;;5073363;28;20024;-75
2021/11/17 11:49:44;;;;;;;6.85;4.97;;;17.30;99.90;;;;;;5074589;28;20504;-75
2021/11/17 11:52:25;;;;;;;6.72;5.65;;;17.30;99.90;;;;;;5073292;28;20031;-75
2021/11/17 11:54:54;;;;;;;;;;;17.30;99.90;;;;;;5074933;28;20025;-75
2021/11/17 11:57:40;;;;;;;6.70;4.90;;;17.20;99.90;;;;;;5073157;28;19904;-75
2021/11/17 12:00:16;;;;;;;6.20;5.15;;;17.20;99.90;;;;;;5073028;28;20047;-74
2021/11/17 12:02:46;;;;;;;5.43;4.93;;;17.20;99.90;;;;;;5072998;28;20099;-75
2021/11/17 12:05:44;;;;;;;5.90;5.40;;;17.10;99.90;;;;;;5073104;28;20134;-76
2021/11/17 12:08:25;;;;;;;6.90;4.65;;;17.10;99.90;;;;;;5059049;28;20036;-75
2021/11/17 12:11:13;;;;;;;7.95;5.00;;;17.10;99.90;;;;;;5072726;28;20067;-75
2021/11/17 12:13:56;;;;;;;5.72;4.50;;;17.10;99.90;;;;;;5072975;28;20127;-76
2021/11/17 12:16:28;;;;;;;8.98;5.22;;;17.10;99.90;;;;;;5071769;28;20024;-75
2021/11/17 12:19:02;;;;;;;6.13;5.10;;;17.20;99.90;;;;;;5073933;28;20493;-75
2021/11/17 12:21:55;;;;;;;6.60;4.80;;;17.20;99.90;;;;;;5072647;28;20477;-76
2021/11/17 12:24:38;;;;;;;8.20;5.18;;;17.20;99.90;;;;;;5042444;28;20035;-75
2021/11/17 12:27:32;;;;;;;7.22;5.00;;;17.10;99.90;;;;;;5073925;28;20020;-76
2021/11/17 12:30:48;;;;;;;5.88;5.30;;;17.10;99.90;;;;;;5072428;28;20033;-75
2021/11/17 12:33:32;;;;;;;5.55;5.05;;;17.00;99.90;;;;;;5053812;28;20028;-75
2021/11/17 12:36:10;;;;;;;7.22;5.30;;;17.00;99.90;;;;;;5073670;28;20385;-75
2021/11/17 12:38:39;;;;;;;8.80;5.93;;;16.90;99.90;;;;;;5073788;28;20025;-76
2021/11/17 12:41:24;;;;;;;6.70;5.20;;;16.80;99.90;;;;;;5072275;28;20508;-76
2021/11/17 12:44:06;;;;;;;7.70;4.95;;;16.80;99.90;;;;;;5073599;28;20017;-75
2021/11/17 12:46:47;;;;;;;6.15;4.95;;;16.80;99.90;;;;;;5073672;28;20029;-75
2021/11/17 12:49:23;;;;;;;5.60;5.10;;;16.80;99.90;;;;;;5072286;28;20024;-75
2021/11/17 12:51:59;;;;;;;9.07;5.28;;;16.70;99.90;;;;;;5073462;28;20021;-75
2021/11/17 12:54:47;;;;;;;6.82;4.65;;;16.70;99.90;;;;;;5072069;28;20020;-75
2021/11/17 12:57:17;;;;;;;9.70;5.63;;;16.80;99.90;;;;;;5072054;28;20024;-75
2021/11/17 12:59:48;;;;;;;8.88;5.68;;;16.80;99.90;;;;;;5071916;28;20139;-76
2021/11/17 13:02:24;;;;;;;;;;;16.70;99.90;;;;;;5072434;28;20461;-76
2021/11/17 13:04:55;;;;;;;6.22;5.18;;;16.80;99.90;;;;;;5071877;28;19915;-76
2021/11/17 13:07:42;;;;;;;;;;;16.70;99.90;;;;;;5073692;28;20025;-76
2021/11/17 13:10:22;;;;;;;5.20;4.70;;;16.70;99.90;;;;;;5073353;28;19911;-76
2021/11/17 13:13:18;;;;;;;8.27;4.80;;;16.70;99.90;;;;;;5073275;28;20104;-75
2021/11/17 13:15:48;;;;;;;5.20;4.70;;;16.70;99.90;;;;;;5071839;28;20119;-76
2021/11/17 13:18:30;;;;;;;7.22;5.20;;;16.70;99.90;;;;;;5072899;28;20451;-75
2021/11/17 13:21:15;;;;;;;6.93;4.85;;;16.70;99.90;;;;;;5071686;28;20373;-75
2021/11/17 13:23:48;;;;;;;6.60;4.60;;;16.60;99.90;;;;;;5071219;28;20020;-75
2021/11/17 13:26:35;;;;;;;8.25;5.00;;;16.70;99.90;;;;;;5071753;28;20075;-75
2021/11/17 13:29:24;;;;;;;8.15;4.90;;;16.80;99.90;;;;;;5072904;28;20104;-76
2021/11/17 13:31:55;;;;;;;4.90;4.50;;;16.80;99.90;;;;;;5073003;28;20020;-76
2021/11/17 13:34:30;;;;;;;5.30;4.50;;;16.90;99.90;;;;;;5071665;28;20028;-76
2021/11/17 13:37:35;;;;;;;7.53;4.60;;;17.00;99.90;;;;;;5071681;28;20477;-76
2021/11/17 13:40:12;;;;;;;5.20;4.80;;;16.90;99.90;;;;;;5069848;28;20093;-75
2021/11/17 13:42:40;;;;;;;11.05;5.15;;;16.90;99.90;;;;;;5071599;28;20515;-75
2021/11/17 13:45:20;;;;;;;6.50;4.70;;;17.00;99.90;;;;;;5071514;28;20492;-76
2021/11/17 13:47:49;;;;;;;5.13;4.70;;;17.10;99.90;;;;;;5072975;28;20021;-76
2021/11/17 13:50:20;;;;;;;6.75;4.85;;;17.10;99.90;;;;;;5071495;28;20083;-76
2021/11/17 13:52:49;;;;;;;7.43;4.78;;;17.10;99.90;;;;;;5071497;28;20483;-76
2021/11/17 13:55:22;;;;;;;5.13;4.70;;;17.10;99.90;;;;;;5072705;28;20020;-75
2021/11/17 13:57:50;;;;;;;5.55;4.68;;;17.10;99.90;;;;;;5071524;28;20033;-76
2021/11/17 14:00:20;;;;;;;5.55;4.72;;;17.10;99.90;;;;;;5054681;28;20397;-76
2021/11/17 14:02:48;;;;;;;6.50;4.60;;;17.10;99.90;;;;;;5071269;28;20039;-77
2021/11/17 14:05:21;;;;;;;6.68;5.15;;;17.10;99.90;;;;;;5072494;28;20032;-74
2021/11/17 14:07:50;;;;;;;6.75;5.30;;;17.10;99.90;;;;;;5072582;28;20039;-75
2021/11/17 14:10:19;;;;;;;6.75;5.20;;;17.10;99.90;;;;;;5072502;28;20029;-76
2021/11/17 14:12:49;;;;;;;7.75;5.13;;;17.10;99.90;;;;;;5071298;28;20083;-75
2021/11/17 14:15:20;;;;;;;7.10;4.82;;;17.00;99.90;;;;;;5072528;28;20504;-76
2021/11/17 14:17:50;;;;;;;6.40;5.47;;;17.00;99.90;;;;;;5070961;28;20087;-76
2021/11/17 14:20:19;;;;;;;9.35;6.07;;;17.00;99.90;;;;;;5072454;28;20496;-76
2021/11/17 14:22:47;;;;;;;6.05;5.03;;;17.00;99.90;;;;;;5071179;28;20540;-76
2021/11/17 14:25:17;;;;;;;5.40;4.90;;;16.90;99.90;;;;;;5071082;28;20075;-75
2021/11/17 14:27:52;;;;;;;5.80;5.30;;;16.90;99.90;;;;;;5072389;28;20070;-75
2021/11/17 14:30:28;;;;;;;7.53;4.80;;;16.80;99.90;;;;;;5072411;28;20135;-75
2021/11/17 14:32:56;;;;;;;7.70;5.10;;;16.60;99.90;;;;;;5071202;28;20397;-75
2021/11/17 14:35:27;;;;;;;5.68;4.90;;;16.70;99.90;;;;;;5076055;28;20074;-74
2021/11/17 14:37:55;;;;;;;5.93;5.07;;;16.70;99.90;;;;;;5075027;28;20021;-75
2021/11/17 14:40:24;;;;;;;5.28;4.80;;;16.70;99.90;;;;;;5075309;28;20057;-76
2021/11/17 14:42:52;;;;;;;8.82;5.10;;;16.60;99.90;;;;;;5076641;28;20476;-75
2021/11/17 14:45:26;;;;;;;5.95;4.88;;;16.60;99.90;;;;;;5075555;28;20033;-76
2021/11/17 14:47:54;;;;;;;7.68;4.90;;;16.60;99.90;;;;;;5075530;28;20056;-75
2021/11/17 14:50:21;;;;;;;7.47;5.07;;;16.60;99.90;;;;;;5076418;28;20044;-76
2021/11/17 14:52:50;;;;;;;6.15;4.93;;;16.50;99.90;;;;;;5076640;28;20499;-76
2021/11/17 14:55:21;;;;;;;5.75;5.32;;;16.50;99.90;;;;;;5075336;28;20020;-76
2021/11/17 14:57:48;;;;;;;;;;;16.50;99.90;;;;;;5076975;28;20475;-75
2021/11/17 15:00:21;;;;;;;8.38;5.70;;;16.40;99.90;;;;;;5075067;28;20004;-75
2021/11/17 15:02:54;;;;;;;5.82;5.30;;;16.40;99.90;;;;;;5076337;28;20405;-75
2021/11/17 15:05:26;;;;;;;5.95;5.45;;;16.40;99.90;;;;;;5076452;28;20017;-75
2021/11/17 15:07:54;;;;;;;6.13;5.30;;;16.40;99.90;;;;;;5075281;28;20119;-76
2021/11/17 15:10:25;;;;;;;7.38;5.68;;;16.40;99.90;;;;;;5076507;28;20028;-76
2021/11/17 15:12:53;;;;;;;6.45;5.50;;;16.30;99.90;;;;;;5076231;28;20025;-76
2021/11/17 15:15:27;;;;;;;8.18;5.57;;;16.30;99.90;;;;;;5074906;28;20028;-75
2021/11/17 15:17:56;;;;;;;6.78;5.25;;;16.20;99.90;;;;;;5057834;28;20049;-75
2021/11/17 15:20:24;;;;;;;6.88;5.85;;;16.20;99.90;;;;;;5076347;28;20476;-74
2021/11/17 15:22:52;;;;;;;7.07;5.50;;;16.10;99.90;;;;;;5075945;28;20096;-75
2021/11/17 15:25:24;;;;;;;6.10;5.22;;;15.90;99.90;;;;;;5074259;28;20039;-75
2021/11/17 15:27:57;;;;;;;7.68;5.78;;;16.00;99.90;;;;;;5075994;28;20024;-76
2021/11/17 15:30:37;;;;;;;5.68;5.18;;;15.90;99.90;;;;;;5076006;28;20052;-76
2021/11/17 15:33:05;;;;;;;8.20;5.88;;;16.00;99.90;;;;;;5075967;28;20020;-74
2021/11/17 15:35:34;;;;;;;6.70;5.50;;;15.80;99.90;;;;;;5074524;28;20032;-75
2021/11/17 15:38:04;;;;;;;6.63;5.82;;;15.70;99.90;;;;;;5074545;28;20032;-74
2021/11/17 15:40:35;;;;;;;6.68;5.85;;;15.60;99.90;;;;;;5074456;28;20021;-75
2021/11/17 15:43:04;;;;;;;7.28;6.40;;;15.60;99.90;;;;;;5057797;28;20029;-74
2021/11/17 15:45:32;;;;;;;6.45;5.78;;;15.60;99.90;;;;;;5075135;28;20025;-75
2021/11/17 15:48:00;;;;;;;6.32;5.72;;;15.60;99.90;;;;;;5074382;28;20540;-75
2021/11/17 15:50:31;;;;;;;7.70;6.15;;;15.50;99.90;;;;;;5075586;28;20048;-75
2021/11/17 15:52:59;;;;;;;8.98;6.20;;;15.50;99.90;;;;;;5075638;28;20025;-75
2021/11/17 15:55:27;;;;;;;6.47;5.97;;;15.40;99.90;;;;;;5074153;28;20029;-75
2021/11/17 15:57:56;;;;;;;7.55;5.75;;;15.40;99.90;;;;;;5073950;28;20056;-73
2021/11/17 16:00:26;;;;;;;8.73;6.10;;;15.40;99.90;;;;;;5075291;28;20035;-75
2021/11/17 16:02:54;;;;;;;6.70;6.13;;;15.30;99.90;;;;;;5073971;28;20112;-74
2021/11/17 16:05:23;;;;;;;9.85;6.60;;;15.30;99.90;;;;;;5057512;28;20028;-75
2021/11/17 16:07:51;;;;;;;8.05;6.60;;;15.30;99.90;;;;;;5073987;28;20079;-75
2021/11/17 16:10:21;;;;;;;8.25;7.38;;;15.30;99.90;;;;;;5075132;28;20025;-75